Time;durP1;ratioP1;P1;durP2;ratioP2;P2;SDS_P1;SDS_P2;PMS_P1;PMS_P2;Temp;Humidity;BMP_temperature;BMP_pressure;BME280_temperature;BME280_humidity;BME280_pressure;Samples;Min_cycle;Max_cycle;Signal;HPM_P1;HPM_P2
2021/04/01 00:01:49;;;;;;;26.10;15.00;;;18.40;1.00;;;;;;5072765;28;20746;-83
2021/04/01 00:04:15;;;;;;;21.50;14.37;;;18.20;1.00;;;;;;5072878;28;20263;-83
2021/04/01 00:06:41;;;;;;;24.20;14.33;;;18.10;1.00;;;;;;5072880;28;20172;-80
2021/04/01 00:09:06;;;;;;;21.63;14.03;;;18.10;1.00;;;;;;5072527;28;20176;-80
2021/04/01 00:11:33;;;;;;;22.33;14.70;;;18.10;1.00;;;;;;5072996;28;20270;-81
2021/04/01 00:14:03;;;;;;;26.67;15.43;;;18.20;1.00;;;;;;5072545;28;20183;-81
2021/04/01 00:16:30;;;;;;;22.67;14.33;;;18.20;1.00;;;;;;5072912;28;20201;-81
2021/04/01 00:18:55;;;;;;;22.10;14.70;;;18.10;1.00;;;;;;5054276;28;20261;-80
2021/04/01 00:21:21;;;;;;;26.97;14.70;;;18.30;1.00;;;;;;5054093;28;20668;-80
2021/04/01 00:23:47;;;;;;;21.67;14.43;;;17.90;1.00;;;;;;5071945;28;20168;-81
2021/04/01 00:26:13;;;;;;;23.67;14.30;;;17.70;1.00;;;;;;5072672;28;20661;-83
2021/04/01 00:28:39;;;;;;;20.93;13.83;;;17.50;1.00;;;;;;5072538;28;20185;-82
2021/04/01 00:31:04;;;;;;;21.40;13.67;;;17.50;1.00;;;;;;5072691;28;20179;-82
2021/04/01 00:33:30;;;;;;;21.20;14.80;;;17.50;1.00;;;;;;5072396;28;20514;-84
2021/04/01 00:35:56;;;;;;;24.33;14.17;;;17.50;1.00;;;;;;5089711;28;20207;-82
2021/04/01 00:38:21;;;;;;;26.40;13.97;;;17.60;1.00;;;;;;5092326;28;20634;-83
2021/04/01 00:40:47;;;;;;;24.83;14.60;;;17.50;1.00;;;;;;5092821;28;20207;-80
2021/04/01 00:43:13;;;;;;;24.47;14.33;;;17.30;1.00;;;;;;5074427;28;20191;-81
2021/04/01 00:45:39;;;;;;;25.33;14.37;;;17.40;1.00;;;;;;5092663;28;20182;-81
2021/04/01 00:48:05;;;;;;;21.83;14.07;;;17.30;1.00;;;;;;5092679;28;20164;-80
2021/04/01 00:50:31;;;;;;;23.47;13.70;;;17.10;1.00;;;;;;5092656;28;20167;-80
2021/04/01 00:52:57;;;;;;;21.63;13.77;;;17.00;1.00;;;;;;5074263;28;20176;-81
2021/04/01 00:55:24;;;;;;;24.23;14.63;;;17.10;1.00;;;;;;5092822;28;20589;-82
2021/04/01 00:57:52;;;;;;;24.03;14.03;;;17.10;1.00;;;;;;5092858;28;20201;-83
2021/04/01 01:00:22;;;;;;;22.50;15.03;;;17.20;1.00;;;;;;5093196;28;20168;-81
2021/04/01 01:02:47;;;;;;;27.00;14.53;;;17.10;1.00;;;;;;5096515;28;20254;-84
2021/04/01 01:05:14;;;;;;;24.40;14.33;;;17.00;1.00;;;;;;5096580;28;20179;-80
2021/04/01 01:07:41;;;;;;;21.13;14.67;;;17.00;1.00;;;;;;5096137;28;20524;-81
2021/04/01 01:10:12;;;;;;;23.67;14.63;;;17.10;1.00;;;;;;5096314;28;20651;-81
2021/04/01 01:12:39;;;;;;;26.90;14.73;;;17.10;1.00;;;;;;5078149;28;20180;-79
2021/04/01 01:15:06;;;;;;;25.17;15.07;;;17.20;1.00;;;;;;5096178;28;20203;-81
2021/04/01 01:17:32;;;;;;;34.20;15.90;;;17.30;1.00;;;;;;5096643;28;20174;-79
2021/04/01 01:19:58;;;;;;;22.03;14.87;;;17.30;1.00;;;;;;5096251;28;20199;-81
2021/04/01 01:22:24;;;;;;;25.33;14.23;;;17.30;1.00;;;;;;5096322;28;20199;-83
2021/04/01 01:24:51;;;;;;;23.83;15.67;;;17.30;1.00;;;;;;5096023;28;20164;-80
2021/04/01 01:27:17;;;;;;;19.20;14.27;;;17.40;1.00;;;;;;5096351;28;20193;-81
2021/04/01 01:29:47;;;;;;;22.93;14.00;;;17.30;1.00;;;;;;5095962;28;20177;-80
2021/04/01 01:32:14;;;;;;;24.03;14.10;;;17.20;1.00;;;;;;5096367;28;20168;-84
2021/04/01 01:34:41;;;;;;;20.43;13.87;;;17.30;1.00;;;;;;5089079;28;20198;-80
2021/04/01 01:37:06;;;;;;;23.40;14.70;;;17.10;1.00;;;;;;5057389;28;20590;-81
2021/04/01 01:39:32;;;;;;;19.60;14.27;;;17.10;1.00;;;;;;5057483;28;20181;-80
2021/04/01 01:41:57;;;;;;;20.57;14.87;;;17.00;1.00;;;;;;5075838;28;20274;-81
2021/04/01 01:44:23;;;;;;;23.47;14.60;;;17.00;1.00;;;;;;5075701;28;20176;-81
2021/04/01 01:46:49;;;;;;;24.37;15.00;;;17.10;1.00;;;;;;5057703;28;20188;-82
2021/04/01 01:49:15;;;;;;;20.97;14.37;;;17.10;1.00;;;;;;5075109;28;20206;-82
2021/04/01 01:51:40;;;;;;;20.63;15.17;;;17.10;1.00;;;;;;5075638;28;20169;-80
2021/04/01 01:54:06;;;;;;;22.93;15.53;;;17.00;1.00;;;;;;5075522;28;20173;-81
2021/04/01 01:56:33;;;;;;;21.47;15.20;;;17.00;1.00;;;;;;5075464;28;20663;-81
2021/04/01 01:58:59;;;;;;;24.57;16.03;;;17.00;1.00;;;;;;5075253;28;20168;-79
2021/04/01 02:01:26;;;;;;;23.60;15.67;;;16.90;1.00;;;;;;5075326;28;20632;-81
2021/04/01 02:03:53;;;;;;;22.83;14.90;;;16.80;1.00;;;;;;5074835;28;20596;-83
2021/04/01 02:06:20;;;;;;;21.20;15.30;;;16.50;1.00;;;;;;5075292;28;20212;-81
2021/04/01 02:08:48;;;;;;;22.73;15.07;;;16.50;1.00;;;;;;5075237;28;20522;-82
2021/04/01 02:11:18;;;;;;;21.70;14.90;;;16.50;1.00;;;;;;5075339;28;20562;-81
2021/04/01 02:13:44;;;;;;;23.90;14.93;;;16.40;1.00;;;;;;5074148;28;20172;-81
2021/04/01 02:16:10;;;;;;;19.87;14.73;;;16.40;1.00;;;;;;5074793;28;20215;-82
2021/04/01 02:18:37;;;;;;;24.40;16.07;;;16.40;1.00;;;;;;5075053;28;20174;-83
2021/04/01 02:21:03;;;;;;;20.33;15.70;;;16.40;1.00;;;;;;5056662;28;20611;-82
2021/04/01 02:23:33;;;;;;;19.83;15.50;;;16.50;1.00;;;;;;5075103;28;20243;-80
2021/04/01 02:26:00;;;;;;;20.33;15.67;;;16.60;1.00;;;;;;5056850;28;20213;-83
2021/04/01 02:28:28;;;;;;;27.30;15.53;;;16.70;1.00;;;;;;5057010;28;20608;-82
2021/04/01 02:30:59;;;;;;;20.67;15.40;;;16.70;1.00;;;;;;5074718;28;20174;-83
2021/04/01 02:33:30;;;;;;;21.03;16.00;;;16.50;1.00;;;;;;5056687;28;20176;-82
2021/04/01 02:35:56;;;;;;;24.73;14.57;;;16.40;1.00;;;;;;5073600;28;20213;-82
2021/04/01 02:38:22;;;;;;;26.00;15.97;;;16.50;1.00;;;;;;5095151;28;20168;-82
2021/04/01 02:40:48;;;;;;;25.80;15.10;;;16.60;1.00;;;;;;5076672;28;20228;-81
2021/04/01 02:43:20;;;;;;;20.13;15.20;;;16.60;1.00;;;;;;5094788;28;20192;-80
2021/04/01 02:45:46;;;;;;;22.83;15.57;;;16.60;1.00;;;;;;5094718;28;20657;-80
2021/04/01 02:48:12;;;;;;;26.43;15.20;;;16.70;1.00;;;;;;5076446;28;20266;-82
2021/04/01 02:50:37;;;;;;;22.03;15.73;;;16.50;1.00;;;;;;5094647;28;20206;-83
2021/04/01 02:53:03;;;;;;;23.43;15.80;;;16.30;1.00;;;;;;5094595;28;20705;-79
2021/04/01 02:55:29;;;;;;;26.43;16.33;;;16.10;1.00;;;;;;5076297;28;20736;-81
2021/04/01 02:57:54;;;;;;;25.60;15.53;;;16.10;48.10;;;;;;5094719;28;20703;-82
2021/04/01 03:00:26;;;;;;;22.70;15.73;;;16.20;30.80;;;;;;5094317;28;20168;-81
2021/04/01 03:02:56;;;;;;;24.13;15.77;;;16.00;51.30;;;;;;5094410;28;20677;-80
2021/04/01 03:05:22;;;;;;;23.07;15.20;;;16.10;37.40;;;;;;5076147;28;20282;-82
2021/04/01 03:07:48;;;;;;;20.90;15.13;;;16.20;1.50;;;;;;5076421;28;20631;-79
2021/04/01 03:10:14;;;;;;;20.80;16.27;;;16.20;1.00;;;;;;5075815;28;20183;-83
2021/04/01 03:12:40;;;;;;;24.30;16.27;;;16.10;23.90;;;;;;5075980;28;20190;-80
2021/04/01 03:15:08;;;;;;;22.40;15.87;;;16.20;29.40;;;;;;5094231;28;20255;-81
2021/04/01 03:17:35;;;;;;;34.53;17.67;;;16.20;31.70;;;;;;5093981;28;20171;-79
2021/04/01 03:20:00;;;;;;;33.40;17.03;;;16.20;44.20;;;;;;5076260;28;20585;-81
2021/04/01 03:22:26;;;;;;;25.37;16.77;;;16.20;43.60;;;;;;5094032;28;20164;-81
2021/04/01 03:24:52;;;;;;;26.80;15.70;;;16.10;50.70;;;;;;5093975;28;20800;-81
2021/04/01 03:27:18;;;;;;;24.57;15.73;;;16.00;85.40;;;;;;5093787;28;20184;-81
2021/04/01 03:30:02;;;;;;;20.20;15.13;;;15.80;99.90;;;;;;5093707;28;20189;-79
2021/04/01 03:32:29;;;;;;;22.93;16.33;;;15.70;99.90;;;;;;5075009;28;20181;-82
2021/04/01 03:34:54;;;;;;;28.03;16.23;;;15.60;99.90;;;;;;5084936;28;20177;-81
2021/04/01 03:37:20;;;;;;;24.17;16.17;;;15.50;99.90;;;;;;5073208;28;20214;-80
2021/04/01 03:39:45;;;;;;;22.23;15.40;;;15.40;99.90;;;;;;5055513;28;20229;-82
2021/04/01 03:42:11;;;;;;;29.57;16.17;;;15.40;99.90;;;;;;5055406;28;20200;-81
2021/04/01 03:44:37;;;;;;;24.13;15.87;;;15.30;1.00;;;;;;5073198;28;20569;-80
2021/04/01 03:47:02;;;;;;;29.23;16.03;;;15.30;1.00;;;;;;5055524;28;20703;-81
2021/04/01 03:49:28;;;;;;;29.03;15.80;;;15.30;99.90;;;;;;5073552;28;20171;-78
2021/04/01 03:51:54;;;;;;;25.60;16.87;;;15.20;99.90;;;;;;5073345;28;20256;-80
2021/04/01 03:54:19;;;;;;;22.27;15.33;;;15.20;1.00;;;;;;5073066;28;20252;-82
2021/04/01 03:56:48;;;;;;;23.13;16.17;;;15.30;99.90;;;;;;5073061;28;20204;-80
2021/04/01 03:59:17;;;;;;;25.90;16.23;;;15.30;99.90;;;;;;5073169;28;20174;-80
2021/04/01 04:14:42;;;;;;;23.10;15.77;;;15.60;99.90;;;;;;5072358;28;20664;-80
2021/04/01 04:17:07;;;;;;;24.60;16.13;;;15.60;99.90;;;;;;5073026;28;20208;-80
2021/04/01 04:19:33;;;;;;;27.63;16.60;;;15.50;99.90;;;;;;5054947;28;20720;-81
2021/04/01 04:21:59;;;;;;;26.37;16.63;;;15.50;99.90;;;;;;5072484;28;20529;-82
2021/04/01 04:24:25;;;;;;;26.63;16.60;;;15.50;99.90;;;;;;5054835;28;20183;-81
2021/04/01 04:26:51;;;;;;;25.47;17.17;;;15.20;99.90;;;;;;5072626;28;20167;-79
2021/04/01 04:29:18;;;;;;;26.53;16.50;;;15.20;99.90;;;;;;5054498;28;20249;-81
2021/04/01 04:31:44;;;;;;;25.87;17.17;;;15.20;99.90;;;;;;5072485;28;20259;-81
2021/04/01 04:34:09;;;;;;;29.43;17.53;;;15.10;99.90;;;;;;5074964;28;20172;-81
2021/04/01 04:36:35;;;;;;;33.07;17.50;;;15.10;99.90;;;;;;5092140;28;20203;-80
2021/04/01 04:39:01;;;;;;;24.40;17.33;;;15.10;99.90;;;;;;5092637;28;20650;-80
2021/04/01 04:41:26;;;;;;;32.53;17.60;;;15.10;99.90;;;;;;5092191;28;20227;-80
2021/04/01 04:43:52;;;;;;;31.67;17.20;;;15.10;99.90;;;;;;5074266;28;20174;-81
2021/04/01 04:46:17;;;;;;;26.17;16.47;;;15.10;99.90;;;;;;5091149;28;20212;-79
2021/04/01 04:48:43;;;;;;;25.23;15.87;;;15.10;99.90;;;;;;5092632;28;20171;-81
2021/04/01 04:51:09;;;;;;;25.57;16.53;;;15.10;99.90;;;;;;5091720;28;20703;-81
2021/04/01 04:53:34;;;;;;;26.57;16.07;;;15.20;99.90;;;;;;5092554;28;20282;-80
2021/04/01 05:04:37;;;;;;;26.83;16.33;;;15.30;99.90;;;;;;5092717;28;20182;-81
2021/04/01 05:06:54;;;;;;;28.97;17.40;;;15.30;99.90;;;;;;5092440;28;20184;-81
2021/04/01 05:09:20;;;;;;;23.63;16.30;;;15.10;99.90;;;;;;5074291;28;20179;-82
2021/04/01 05:11:45;;;;;;;31.07;17.40;;;15.00;1.00;;;;;;5092233;28;20585;-81
2021/04/01 05:14:11;;;;;;;30.40;17.30;;;15.10;1.00;;;;;;5092122;28;20224;-78
2021/04/01 05:16:37;;;;;;;29.50;16.83;;;15.00;1.00;;;;;;5074010;28;20208;-80
2021/04/01 05:19:05;;;;;;;26.17;16.73;;;15.00;1.00;;;;;;5092563;28;20555;-82
2021/04/01 05:24:22;;;;;;;24.47;18.27;;;15.10;1.00;;;;;;5040815;28;20577;-81
2021/04/01 05:29:31;;;;;;;33.50;17.10;;;15.10;1.00;;;;;;5092386;28;20175;-79
2021/04/01 05:31:57;;;;;;;30.87;16.77;;;15.10;1.00;;;;;;5092045;28;20175;-81
2021/04/01 05:34:24;;;;;;;34.70;17.67;;;14.90;1.00;;;;;;5087821;28;20174;-80
2021/04/01 05:36:52;;;;;;;37.00;18.23;;;14.90;1.00;;;;;;5071684;28;20207;-81
2021/04/01 05:39:20;;;;;;;37.10;18.00;;;14.90;1.00;;;;;;5071827;28;20156;-81
2021/04/01 05:41:51;;;;;;;40.23;17.93;;;15.10;1.00;;;;;;5071334;28;20281;-81
2021/04/01 05:46:56;;;;;;;36.07;18.97;;;15.00;1.00;;;;;;5071899;28;20641;-80
2021/04/01 06:05:45;;;;;;;36.57;19.43;;;14.80;1.00;;;;;;5046224;28;20225;-80
2021/04/01 06:08:19;;;;;;;35.30;18.87;;;14.80;1.00;;;;;;5074854;28;20161;-83
2021/04/01 06:10:45;;;;;;;34.43;18.47;;;14.90;1.00;;;;;;5074602;28;20248;-80
2021/04/01 06:13:13;;;;;;;37.83;18.50;;;15.10;1.00;;;;;;5077598;28;20211;-81
2021/04/01 06:15:46;;;;;;;30.80;17.93;;;15.30;1.00;;;;;;5061395;28;20212;-80
2021/04/01 06:18:14;;;;;;;27.17;18.60;;;15.10;1.00;;;;;;5075104;28;20176;-81
2021/04/01 06:20:46;;;;;;;28.47;18.63;;;15.30;99.90;;;;;;5073702;28;20262;-79
2021/04/01 06:23:17;;;;;;;33.40;18.60;;;15.40;99.90;;;;;;5073633;28;20180;-78
2021/04/01 06:25:49;;;;;;;28.77;18.53;;;15.40;99.90;;;;;;5073586;28;20208;-79
2021/04/01 06:28:21;;;;;;;32.93;18.17;;;15.40;99.90;;;;;;5055816;28;20196;-80
2021/04/01 06:31:08;;;;;;;28.63;18.07;;;15.40;99.90;;;;;;5078570;28;20928;-79
2021/04/01 06:33:43;;;;;;;41.23;20.10;;;15.50;99.90;;;;;;5077650;28;20723;-80
2021/04/01 06:36:20;;;;;;;32.93;17.63;;;15.60;99.90;;;;;;5074269;28;20324;-81
2021/04/01 06:38:47;;;;;;;33.67;18.97;;;15.80;99.90;;;;;;5085151;28;20176;-80
2021/04/01 06:41:24;;;;;;;30.63;18.60;;;15.90;99.90;;;;;;5092870;28;20181;-81
2021/04/01 06:44:08;;;;;;;34.20;18.43;;;16.00;98.20;;;;;;5091505;28;20210;-79
2021/04/01 06:46:45;;;;;;;32.80;18.40;;;16.00;60.30;;;;;;5088399;28;20178;-82
2021/04/01 06:52:11;;;;;;;32.50;20.10;;;16.00;99.90;;;;;;5073426;28;20172;-80
2021/04/01 06:54:43;;;;;;;31.20;18.47;;;16.10;69.20;;;;;;5070008;28;20589;-81
2021/04/01 07:05:52;;;;;;;33.37;20.53;;;16.20;1.00;;;;;;5073352;28;20579;-79
2021/04/01 07:08:25;;;;;;;33.63;19.30;;;16.40;1.00;;;;;;5072573;28;20221;-78
2021/04/01 07:11:00;;;;;;;35.63;20.40;;;16.50;1.00;;;;;;5073405;28;20252;-82
2021/04/01 07:13:35;;;;;;;35.27;20.57;;;16.70;1.00;;;;;;5072886;28;20614;-81
2021/04/01 07:16:12;;;;;;;39.53;20.77;;;16.90;1.00;;;;;;5055043;28;20205;-82
2021/04/01 07:46:32;;;;;;;53.67;32.50;;;17.40;99.90;;;;;;5072498;28;20175;-83
2021/04/01 07:49:09;;;;;;;45.03;30.43;;;17.60;99.90;;;;;;5054128;28;20612;-81
2021/04/01 07:54:16;;;;;;;49.30;31.20;;;17.40;99.90;;;;;;5067110;28;20340;-82
2021/04/01 07:56:59;;;;;;;51.30;31.73;;;17.50;99.90;;;;;;5078494;28;20241;-81
2021/04/01 07:59:48;;;;;;;51.83;32.37;;;17.50;99.90;;;;;;5076187;28;20183;-82
2021/04/01 08:02:44;;;;;;;56.10;33.33;;;17.60;99.90;;;;;;5081667;28;20164;-80
2021/04/01 08:05:14;;;;;;;57.57;34.20;;;17.90;99.90;;;;;;5086129;28;20168;-83
2021/04/01 08:07:48;;;;;;;56.73;34.67;;;17.80;99.90;;;;;;5081299;28;20543;-82
2021/04/01 08:10:17;;;;;;;57.63;34.67;;;18.00;99.90;;;;;;5070520;28;20175;-80
2021/04/01 08:12:49;;;;;;;56.03;34.43;;;18.10;99.90;;;;;;5081112;28;20180;-82
2021/04/01 08:15:22;;;;;;;56.07;35.73;;;18.10;99.90;;;;;;5090672;28;20182;-82
2021/04/01 08:17:56;;;;;;;62.83;36.73;;;17.90;99.90;;;;;;5091809;28;20180;-81
2021/04/01 08:20:29;;;;;;;58.37;36.03;;;18.00;99.90;;;;;;5084892;28;20550;-82
2021/04/01 08:25:31;;;;;;;62.10;38.17;;;18.30;99.90;;;;;;5080921;28;20579;-83
2021/04/01 08:31:13;;;;;;;63.77;39.03;;;18.60;99.90;;;;;;5074986;28;20264;-81
2021/04/01 08:36:27;;;;;;;64.27;38.23;;;18.50;99.90;;;;;;5083577;28;20209;-82
2021/04/01 08:38:53;;;;;;;68.77;38.43;;;18.30;99.90;;;;;;5076091;28;20226;-82
2021/04/01 08:41:22;;;;;;;74.30;37.80;;;18.30;99.90;;;;;;5070659;28;20198;-78
2021/04/01 08:44:32;;;;;;;70.93;39.77;;;18.30;99.90;;;;;;5081963;28;20200;-80
2021/04/01 08:47:16;;;;;;;71.20;39.43;;;18.40;99.90;;;;;;5032594;28;20636;-82
2021/04/01 08:49:54;;;;;;;71.33;38.63;;;18.50;99.90;;;;;;5089927;28;20171;-82
2021/04/01 08:52:47;;;;;;;67.40;38.87;;;18.50;99.90;;;;;;5056517;28;20180;-82
2021/04/01 08:55:20;;;;;;;65.77;38.50;;;18.60;99.90;;;;;;5081561;28;20262;-80
2021/04/01 08:58:20;;;;;;;65.90;36.63;;;18.80;99.90;;;;;;5063781;28;20184;-80
2021/04/01 09:00:49;;;;;;;62.30;37.33;;;18.80;99.90;;;;;;5069138;28;20187;-82
2021/04/01 09:03:18;;;;;;;63.50;33.23;;;19.00;99.90;;;;;;5076924;28;20259;-84
2021/04/01 09:05:53;;;;;;;55.53;31.87;;;18.90;99.90;;;;;;5068851;28;20902;-81
2021/04/01 09:08:24;;;;;;;50.97;30.43;;;18.70;99.90;;;;;;5079413;28;20263;-79
2021/04/01 09:10:54;;;;;;;63.50;33.43;;;18.70;99.90;;;;;;5054114;28;20176;-84
2021/04/01 09:13:27;;;;;;;52.60;32.27;;;18.70;99.90;;;;;;5073514;28;20318;-81
2021/04/01 09:16:04;;;;;;;57.13;34.17;;;18.80;99.90;;;;;;5053624;28;20223;-81
2021/04/01 09:18:32;;;;;;;53.57;31.70;;;18.80;99.90;;;;;;5072420;28;20180;-81
2021/04/01 09:21:01;;;;;;;57.80;32.13;;;18.80;99.90;;;;;;5087543;28;20168;-80
2021/04/01 09:23:46;;;;;;;61.00;31.87;;;18.90;99.90;;;;;;5074328;28;20209;-79
2021/04/01 09:26:13;;;;;;;48.57;27.23;;;18.80;99.90;;;;;;5074172;28;20169;-83
2021/04/01 09:28:43;;;;;;;50.60;29.70;;;18.70;99.90;;;;;;5056286;28;20279;-83
2021/04/01 09:31:14;;;;;;;49.90;29.17;;;18.80;99.90;;;;;;5056251;28;20226;-80
2021/04/01 09:33:42;;;;;;;48.63;29.63;;;18.90;99.90;;;;;;5091550;28;20175;-86
2021/04/01 09:36:20;;;;;;;52.83;30.20;;;19.00;99.90;;;;;;5075433;28;20209;-79
2021/04/01 09:38:54;;;;;;;49.83;29.60;;;19.00;99.90;;;;;;5055881;28;20211;-83
2021/04/01 09:41:35;;;;;;;45.23;27.17;;;19.10;99.90;;;;;;5076094;28;20291;-82
2021/04/01 09:44:06;;;;;;;39.73;25.83;;;19.20;99.90;;;;;;5074187;28;20176;-82
2021/04/01 09:46:35;;;;;;;38.73;24.20;;;19.20;99.90;;;;;;5090109;28;20259;-83
2021/04/01 09:49:09;;;;;;;37.90;24.77;;;19.30;99.90;;;;;;5094031;28;20635;-79
2021/04/01 09:51:35;;;;;;;44.00;26.17;;;19.20;99.90;;;;;;5076356;28;20175;-82
2021/04/01 09:54:03;;;;;;;48.27;25.70;;;19.30;99.90;;;;;;5083947;28;20176;-83
2021/04/01 09:56:33;;;;;;;41.37;24.33;;;19.30;99.90;;;;;;5079461;28;20300;-80
2021/04/01 09:58:59;;;;;;;41.60;23.67;;;19.50;99.90;;;;;;5072291;28;20263;-79
2021/04/01 10:01:28;;;;;;;39.67;23.70;;;19.50;99.90;;;;;;5092182;28;20172;-80
2021/04/01 10:04:17;;;;;;;40.97;25.13;;;19.60;99.90;;;;;;5073382;28;20177;-81
2021/04/01 10:06:46;;;;;;;39.33;23.80;;;19.60;99.90;;;;;;5079347;28;20247;-78
2021/04/01 10:09:29;;;;;;;40.80;23.97;;;19.80;99.90;;;;;;5081193;28;20187;-81
2021/04/01 10:12:03;;;;;;;45.80;26.10;;;19.80;99.90;;;;;;5056175;28;20303;-80
2021/04/01 10:14:30;;;;;;;47.33;26.97;;;19.80;99.90;;;;;;5054822;28;20195;-79
2021/04/01 10:17:09;;;;;;;44.07;25.93;;;19.90;99.90;;;;;;5072911;28;20232;-81
2021/04/01 10:19:43;;;;;;;42.57;25.90;;;20.00;99.90;;;;;;5055770;28;20176;-82
2021/04/01 10:22:23;;;;;;;42.47;26.03;;;20.20;99.90;;;;;;5073237;28;20172;-79
2021/04/01 10:25:02;;;;;;;41.73;27.23;;;20.20;99.90;;;;;;5073573;28;20180;-80
2021/04/01 10:27:38;;;;;;;44.17;27.43;;;20.30;99.90;;;;;;5072954;28;20242;-80
2021/04/01 10:30:07;;;;;;;43.50;28.13;;;20.50;99.90;;;;;;5073393;28;20667;-80
2021/04/01 10:32:41;;;;;;;52.30;29.00;;;20.50;99.90;;;;;;5062596;28;20576;-79
2021/04/01 10:35:10;;;;;;;45.93;29.13;;;20.60;99.90;;;;;;5082967;28;20170;-83
2021/04/01 10:37:37;;;;;;;47.30;28.53;;;20.60;99.90;;;;;;5054537;28;20222;-79
2021/04/01 10:40:08;;;;;;;46.17;29.07;;;20.60;99.90;;;;;;5073100;28;20265;-80
2021/04/01 10:42:35;;;;;;;49.93;29.37;;;20.60;99.90;;;;;;5085391;28;20311;-81
2021/04/01 10:45:17;;;;;;;46.30;30.40;;;20.80;99.90;;;;;;5092998;28;20251;-80
2021/04/01 10:48:33;;;;;;;48.57;29.47;;;20.80;99.90;;;;;;5093154;28;20565;-82
2021/04/01 10:51:03;;;;;;;45.53;28.07;;;21.10;99.90;;;;;;5093503;28;20168;-81
2021/04/01 10:53:30;;;;;;;45.80;28.80;;;21.00;99.90;;;;;;5085609;28;20187;-80
2021/04/01 10:56:08;;;;;;;43.97;28.00;;;20.90;99.90;;;;;;5073033;28;20652;-79
2021/04/01 10:58:35;;;;;;;42.17;27.23;;;20.80;99.90;;;;;;5072450;28;20178;-79
2021/04/01 11:01:04;;;;;;;46.70;27.53;;;20.80;99.90;;;;;;5072936;28;20165;-81
2021/04/01 11:03:36;;;;;;;43.83;27.97;;;20.70;99.90;;;;;;5092760;28;20170;-80
2021/04/01 11:06:04;;;;;;;46.63;28.57;;;20.80;99.90;;;;;;5059118;28;20263;-81
2021/04/01 11:08:40;;;;;;;45.37;28.20;;;20.80;99.90;;;;;;5072267;28;20173;-79
2021/04/01 11:11:07;;;;;;;45.13;28.00;;;21.00;99.90;;;;;;5054049;28;20177;-79
2021/04/01 11:13:45;;;;;;;42.97;27.43;;;21.00;99.90;;;;;;5071670;28;20257;-78
2021/04/01 11:16:13;;;;;;;49.03;26.47;;;21.20;99.90;;;;;;5071774;28;20259;-80
2021/04/01 11:18:51;;;;;;;38.67;23.77;;;21.30;99.90;;;;;;5074776;28;20624;-80
2021/04/01 11:21:19;;;;;;;45.50;24.87;;;21.30;99.90;;;;;;5065920;28;20193;-77
2021/04/01 11:23:45;;;;;;;45.40;26.30;;;21.10;99.90;;;;;;5082869;28;20239;-78
2021/04/01 11:26:11;;;;;;;38.03;24.27;;;21.20;99.90;;;;;;5077678;28;20181;-78
2021/04/01 11:28:42;;;;;;;48.47;25.37;;;21.20;99.90;;;;;;5080105;28;20595;-80
2021/04/01 11:31:29;;;;;;;38.80;25.13;;;21.30;99.90;;;;;;5092305;28;20200;-78
2021/04/01 11:33:57;;;;;;;40.23;22.77;;;21.50;99.90;;;;;;5072912;28;20179;-81
2021/04/01 11:36:24;;;;;;;32.70;20.43;;;21.60;99.90;;;;;;5092135;28;20201;-80
2021/04/01 11:38:56;;;;;;;36.30;21.00;;;21.60;99.90;;;;;;5091954;28;20169;-79
2021/04/01 11:41:24;;;;;;;37.17;20.93;;;21.60;99.90;;;;;;5071319;28;20225;-78
2021/04/01 11:43:55;;;;;;;32.70;23.13;;;21.60;99.90;;;;;;5074113;28;20238;-79
2021/04/01 11:46:31;;;;;;;36.10;21.73;;;21.60;99.90;;;;;;5080296;28;20252;-84
2021/04/01 11:48:59;;;;;;;33.43;19.07;;;21.60;99.90;;;;;;5074545;28;20171;-83
2021/04/01 11:51:33;;;;;;;33.77;18.53;;;21.60;99.90;;;;;;5072312;28;20254;-79
2021/04/01 11:54:00;;;;;;;37.30;20.63;;;21.50;99.90;;;;;;5083178;28;20168;-85
2021/04/01 11:56:41;;;;;;;28.30;17.87;;;21.50;99.90;;;;;;5092113;28;20304;-78
2021/04/01 11:59:30;;;;;;;39.23;19.10;;;21.40;99.90;;;;;;5073583;28;20266;-82
2021/04/01 12:02:19;;;;;;;34.07;20.50;;;21.20;99.90;;;;;;5084314;28;20200;-82
2021/04/01 12:04:45;;;;;;;36.03;20.90;;;21.30;99.90;;;;;;5071250;28;20177;-79
2021/04/01 12:07:11;;;;;;;28.40;18.73;;;21.40;99.90;;;;;;5053877;28;20178;-82
2021/04/01 12:09:38;;;;;;;32.10;18.80;;;21.50;99.90;;;;;;5071086;28;20200;-81
2021/04/01 12:12:04;;;;;;;34.23;23.67;;;21.40;99.90;;;;;;5071491;28;20395;-83
2021/04/01 12:14:48;;;;;;;35.63;23.93;;;21.50;99.90;;;;;;5072304;28;20185;-80
2021/04/01 12:17:13;;;;;;;33.97;23.00;;;21.50;99.90;;;;;;5071557;28;20209;-81
2021/04/01 12:19:44;;;;;;;43.43;25.23;;;21.50;99.90;;;;;;5053612;28;20536;-81
2021/04/01 12:22:13;;;;;;;38.53;24.40;;;21.60;99.90;;;;;;5053685;28;20215;-81
2021/04/01 12:24:41;;;;;;;39.63;27.43;;;21.30;99.90;;;;;;5085095;28;20173;-83
2021/04/01 12:27:06;;;;;;;47.37;30.23;;;21.30;99.90;;;;;;5091593;28;20215;-83
2021/04/01 12:29:43;;;;;;;43.50;30.60;;;21.30;99.90;;;;;;5091016;28;20239;-81
2021/04/01 12:32:08;;;;;;;43.07;28.73;;;21.30;99.90;;;;;;5086666;28;20169;-79
2021/04/01 12:34:34;;;;;;;47.67;32.00;;;21.40;99.90;;;;;;5071324;28;20624;-82
2021/04/01 12:37:04;;;;;;;47.10;30.93;;;21.30;99.90;;;;;;5071250;28;20205;-79
2021/04/01 12:39:31;;;;;;;49.27;31.43;;;21.30;99.90;;;;;;5070923;28;20192;-81
2021/04/01 12:41:56;;;;;;;48.77;31.00;;;21.10;99.90;;;;;;5077968;28;20197;-79
2021/04/01 12:44:40;;;;;;;52.10;32.73;;;21.10;99.90;;;;;;5091747;28;20169;-84
2021/04/01 12:47:07;;;;;;;50.93;33.37;;;21.00;99.90;;;;;;5091285;28;20179;-79
2021/04/01 12:49:37;;;;;;;51.97;33.77;;;21.10;99.90;;;;;;5091571;28;20164;-79
2021/04/01 12:52:04;;;;;;;54.00;32.97;;;21.20;99.90;;;;;;5091220;28;20177;-81
2021/04/01 12:54:35;;;;;;;59.10;34.60;;;21.40;99.90;;;;;;5074011;28;20178;-83
2021/04/01 12:57:04;;;;;;;57.47;34.53;;;21.50;99.90;;;;;;5072451;28;20212;-81
2021/04/01 12:59:43;;;;;;;52.10;32.43;;;21.30;99.90;;;;;;5057373;28;20693;-79
2021/04/01 13:04:37;;;;;;;55.00;34.57;;;21.30;99.90;;;;;;5079251;28;20230;-83
2021/04/01 13:09:46;;;;;;;53.13;34.03;;;21.10;99.90;;;;;;5096687;28;20177;-80
2021/04/01 13:12:17;;;;;;;58.97;35.80;;;20.80;99.90;;;;;;5095785;28;20177;-83
2021/04/01 13:14:44;;;;;;;54.27;35.57;;;20.90;99.90;;;;;;5077022;28;20696;-81
2021/04/01 13:17:10;;;;;;;53.47;36.57;;;21.00;99.90;;;;;;5095149;28;20246;-80
2021/04/01 13:19:37;;;;;;;56.93;36.33;;;21.20;99.90;;;;;;5076760;28;20308;-83
2021/04/01 13:24:39;;;;;;;56.30;36.27;;;20.80;99.90;;;;;;5080224;28;20184;-81
2021/04/01 13:27:10;;;;;;;56.13;37.13;;;20.90;99.90;;;;;;5074589;28;20188;-78
2021/04/01 13:29:37;;;;;;;55.73;35.20;;;20.70;99.90;;;;;;5074849;28;20175;-80
2021/04/01 13:32:12;;;;;;;58.97;35.77;;;20.70;99.90;;;;;;5079709;28;20180;-80
2021/04/01 13:39:39;;;;;;;58.97;38.17;;;20.70;99.90;;;;;;5074464;28;20574;-79
2021/04/01 13:42:16;;;;;;;56.60;36.93;;;20.80;99.90;;;;;;5064267;28;20226;-81
2021/04/01 13:47:10;;;;;;;49.23;33.50;;;20.80;99.90;;;;;;5094154;28;20168;-80
2021/04/01 13:49:37;;;;;;;50.30;33.00;;;20.60;99.90;;;;;;5094512;28;20160;-81
2021/04/01 13:55:02;;;;;;;51.23;33.37;;;20.50;99.90;;;;;;5051585;28;20663;-83
2021/04/01 14:09:37;;;;;;;48.00;30.33;;;20.10;99.90;;;;;;5072951;28;20191;-82
2021/04/01 14:12:06;;;;;;;43.37;27.97;;;20.00;99.90;;;;;;5073750;28;20192;-82
2021/04/01 14:14:34;;;;;;;43.23;26.30;;;19.90;99.90;;;;;;5074088;28;20171;-82
2021/04/01 14:17:00;;;;;;;38.60;24.27;;;20.00;99.90;;;;;;5073328;28;20735;-82
2021/04/01 14:19:27;;;;;;;41.23;23.30;;;20.10;99.90;;;;;;5073894;28;20247;-81
2021/04/01 14:21:57;;;;;;;33.37;20.60;;;20.30;99.90;;;;;;5073597;28;20247;-78
2021/04/01 14:24:47;;;;;;;37.90;19.93;;;20.10;99.90;;;;;;5073567;28;20164;-81
2021/04/01 14:29:39;;;;;;;28.50;15.37;;;19.90;99.90;;;;;;5073466;28;20176;-81
2021/04/01 14:32:07;;;;;;;27.00;15.27;;;19.70;99.90;;;;;;5075554;28;20207;-81
2021/04/01 14:34:34;;;;;;;26.90;13.87;;;19.40;99.90;;;;;;5081779;28;20179;-81
2021/04/01 14:37:02;;;;;;;28.63;15.27;;;19.40;99.90;;;;;;5093584;28;20286;-83
2021/04/01 14:39:31;;;;;;;22.93;11.70;;;19.50;99.90;;;;;;5093929;28;20198;-84
2021/04/01 14:42:10;;;;;;;28.00;14.17;;;19.50;99.90;;;;;;5086176;28;20256;-83
2021/04/01 14:44:36;;;;;;;20.93;11.00;;;19.40;99.90;;;;;;5073212;28;20240;-82
2021/04/01 14:47:02;;;;;;;23.70;13.00;;;19.30;99.90;;;;;;5072884;28;20195;-80
2021/04/01 14:49:28;;;;;;;18.97;11.50;;;19.10;99.90;;;;;;5054737;28;20280;-81
2021/04/01 14:51:54;;;;;;;23.40;11.77;;;19.20;99.90;;;;;;5072934;28;20620;-83
2021/04/01 14:54:23;;;;;;;22.10;10.87;;;19.10;99.90;;;;;;5072554;28;20168;-80